createdAt,value
2019-05-30T00:00:06.711Z,101624.94
2019-05-30T00:02:26.104Z,101626.80
2019-05-30T00:04:56.104Z,101629.96
2019-05-30T00:07:25.755Z,101633.13
2019-05-30T00:09:56.334Z,101635.82
2019-05-30T00:12:26.018Z,101634.09
2019-05-30T00:14:56.503Z,101634.95
2019-05-30T00:17:26.278Z,101640.46
2019-05-30T00:19:56.757Z,101639.98
2019-05-30T00:22:26.392Z,101638.25
2019-05-30T00:24:56.006Z,101644.97
2019-05-30T00:27:25.490Z,101644.97
2019-05-30T00:29:55.192Z,101636.96
2019-05-30T00:32:24.814Z,101639.65
2019-05-30T00:34:55.514Z,101639.65
2019-05-30T00:37:25.082Z,101636.61
2019-05-30T00:39:55.706Z,101639.30
2019-05-30T00:42:28.190Z,101639.30
2019-05-30T00:44:57.952Z,101634.39
2019-05-30T00:47:27.410Z,101640.64
2019-05-30T00:49:58.102Z,101637.95
2019-05-30T00:52:27.801Z,101639.77
2019-05-30T00:54:58.422Z,101640.64
2019-05-30T00:57:27.976Z,101640.64
2019-05-30T00:59:58.692Z,101641.98
2019-05-30T01:02:28.193Z,101648.23
2019-05-30T01:04:58.868Z,101642.85
2019-05-30T01:07:28.380Z,101642.34
2019-05-30T01:09:59.121Z,101644.20
2019-05-30T01:12:28.726Z,101639.30
2019-05-30T01:14:58.922Z,101641.51
2019-05-30T01:17:28.553Z,101642.85
2019-05-30T01:19:59.084Z,101640.64
2019-05-30T01:22:28.696Z,101646.89
2019-05-30T01:24:59.154Z,101639.30
2019-05-30T01:27:28.803Z,101641.51
2019-05-30T01:29:59.320Z,101645.45
2019-05-30T01:32:29.596Z,101639.65
2019-05-30T01:34:59.940Z,101640.55
2019-05-30T01:37:29.555Z,101639.65
2019-05-30T01:39:59.779Z,101640.55
2019-05-30T01:42:29.397Z,101642.34
2019-05-30T01:45:00.226Z,101638.30
2019-05-30T01:47:29.808Z,101640.16
2019-05-30T01:50:00.303Z,101645.45
2019-05-30T01:52:30.061Z,101646.38
2019-05-30T01:57:28.174Z,101647.27
2019-05-30T01:59:58.676Z,101651.70
2019-05-30T02:02:28.385Z,101653.91
2019-05-30T02:04:58.833Z,101653.52
2019-05-30T02:07:28.401Z,101645.45
2019-05-30T02:09:59.068Z,101646.80
2019-05-30T02:12:28.619Z,101648.53
2019-05-30T02:14:59.315Z,101649.01
2019-05-30T02:17:28.980Z,101646.31
2019-05-30T02:19:59.647Z,101650.61
2019-05-30T02:22:29.268Z,101648.80
2019-05-30T02:24:59.725Z,101652.34
2019-05-30T02:27:29.284Z,101649.66
2019-05-30T02:30:00.058Z,101637.91
2019-05-30T02:32:29.652Z,101641.94
2019-05-30T02:35:00.762Z,101648.58
2019-05-30T02:37:30.468Z,101650.75
2019-05-30T02:40:03.007Z,101647.97
2019-05-30T02:42:31.201Z,101654.58
2019-05-30T02:45:01.402Z,101647.76
2019-05-30T02:47:31.503Z,101644.94
2019-05-30T02:50:01.678Z,101652.31
2019-05-30T02:52:32.329Z,101649.02
2019-05-30T02:55:03.725Z,101649.77
2019-05-30T02:57:33.005Z,101649.55
2019-05-30T03:00:04.579Z,101648.08
2019-05-30T03:02:33.689Z,101646.64
2019-05-30T03:05:04.010Z,101650.20
2019-05-30T03:07:34.443Z,101652.76
2019-05-30T03:10:07.588Z,101655.33
2019-05-30T03:12:36.879Z,101657.06
2019-05-30T03:15:09.270Z,101657.32
2019-05-30T03:17:38.368Z,101650.75
2019-05-30T03:20:20.605Z,101654.45
2019-05-30T03:22:41.089Z,101650.19
2019-05-30T03:25:15.068Z,101649.84
2019-05-30T03:27:41.871Z,101643.24
2019-05-30T03:30:22.122Z,101652.70
2019-05-30T03:35:28.011Z,101651.30
2019-05-30T03:37:46.339Z,101649.21
2019-05-30T03:40:18.239Z,101651.23
2019-05-30T03:42:47.104Z,101651.00
2019-05-30T03:45:16.960Z,101652.48
2019-05-30T03:47:50.929Z,101655.34
2019-05-30T03:50:23.402Z,101655.08
2019-05-30T03:52:53.810Z,101661.97
2019-05-30T03:55:24.473Z,101662.95
2019-05-30T03:58:00.619Z,101668.98
2019-05-30T04:00:41.675Z,101664.72
2019-05-30T04:03:36.079Z,101668.50
2019-05-30T04:06:10.208Z,101668.66
2019-05-30T04:08:43.444Z,101662.42
2019-05-30T04:11:16.826Z,101662.67
2019-05-30T04:13:50.446Z,101669.53
2019-05-30T04:16:20.007Z,101669.20
2019-05-30T04:18:49.574Z,101669.33
2019-05-30T04:21:21.534Z,101664.44
2019-05-30T04:23:50.397Z,101666.80
2019-05-30T04:26:19.942Z,101666.09
2019-05-30T04:28:49.390Z,101667.58
2019-05-30T04:31:19.723Z,101669.43
2019-05-30T04:33:49.195Z,101671.76
2019-05-30T04:36:19.313Z,101673.73
2019-05-30T04:38:49.082Z,101674.34
2019-05-30T04:41:20.889Z,101665.53
2019-05-30T04:43:49.886Z,101670.69
2019-05-30T04:46:21.648Z,101671.28
2019-05-30T04:48:50.535Z,101661.25
2019-05-30T04:51:21.656Z,101664.20
2019-05-30T04:53:51.284Z,101669.94
2019-05-30T04:56:21.949Z,101667.63
2019-05-30T04:58:51.794Z,101656.84
2019-05-30T05:01:22.257Z,101660.87
2019-05-30T05:03:51.996Z,101660.87
2019-05-30T05:06:22.009Z,101669.84
2019-05-30T05:08:53.735Z,101663.58
2019-05-30T05:11:25.247Z,101668.97
2019-05-30T05:13:54.352Z,101668.97
2019-05-30T05:16:34.974Z,101662.23
2019-05-30T05:18:55.028Z,101661.36
2019-05-30T05:21:24.568Z,101662.33
2019-05-30T05:23:54.147Z,101660.87
2019-05-30T05:26:23.692Z,101660.87
2019-05-30T05:28:53.228Z,101653.75
2019-05-30T05:31:22.704Z,101657.80
2019-05-30T05:33:56.842Z,101663.68
2019-05-30T05:36:24.858Z,101660.15
2019-05-30T05:38:54.717Z,101664.68
2019-05-30T05:41:24.349Z,101662.95
2019-05-30T05:43:53.928Z,101661.12
2019-05-30T05:46:24.564Z,101661.12
2019-05-30T05:48:54.224Z,101655.86
2019-05-30T05:51:24.786Z,101660.39
2019-05-30T05:53:54.581Z,101665.05
2019-05-30T05:56:24.940Z,101665.64
2019-05-30T05:58:54.524Z,101661.00
2019-05-30T06:01:25.313Z,101669.67
2019-05-30T06:03:55.172Z,101661.47
2019-05-30T06:06:25.366Z,101655.83
2019-05-30T06:08:55.019Z,101653.98
2019-05-30T06:11:24.693Z,101663.91
2019-05-30T06:13:54.206Z,101662.30
2019-05-30T06:16:24.092Z,101659.61
2019-05-30T06:18:53.751Z,101656.91
2019-05-30T06:21:25.464Z,101651.04
2019-05-30T06:23:55.069Z,101639.87
2019-05-30T06:26:25.834Z,101644.78
2019-05-30T06:28:55.589Z,101641.12
2019-05-30T06:31:25.178Z,101639.77
2019-05-30T06:33:54.952Z,101638.77
2019-05-30T06:36:25.067Z,101639.16
2019-05-30T06:38:54.699Z,101629.09
2019-05-30T06:41:24.198Z,101624.08
2019-05-30T06:43:53.671Z,101619.91
2019-05-30T06:46:24.133Z,101623.84
2019-05-30T06:48:53.638Z,101607.67
2019-05-30T06:51:23.428Z,101609.75
2019-05-30T06:53:53.055Z,101607.91
2019-05-30T06:56:23.265Z,101610.09
2019-05-30T06:58:53.278Z,101613.66
2019-05-30T07:01:23.749Z,101612.30
2019-05-30T07:03:55.081Z,101612.69
2019-05-30T07:06:25.386Z,101606.81
2019-05-30T07:08:55.582Z,101609.51
2019-05-30T07:11:25.078Z,101606.30
2019-05-30T07:13:54.734Z,101600.06
2019-05-30T07:16:25.329Z,101602.25
2019-05-30T07:18:54.944Z,101603.11
2019-05-30T07:21:25.454Z,101591.11
2019-05-30T07:23:55.166Z,101596.85
2019-05-30T07:26:25.628Z,101604.11
2019-05-30T07:28:55.208Z,101600.55
2019-05-30T07:31:25.965Z,101602.87
2019-05-30T07:33:55.547Z,101603.73
2019-05-30T07:36:26.039Z,101601.66
2019-05-30T07:38:55.777Z,101595.78
2019-05-30T07:41:26.676Z,101591.34
2019-05-30T07:43:56.341Z,101591.48
2019-05-30T07:46:26.763Z,101594.77
2019-05-30T07:48:56.396Z,101591.83
2019-05-30T07:51:26.408Z,101583.01
2019-05-30T07:53:55.882Z,101580.55
2019-05-30T07:56:25.508Z,101576.98
2019-05-30T07:58:55.046Z,101572.22
2019-05-30T08:01:24.504Z,101561.43
2019-05-30T08:03:54.107Z,101572.70
2019-05-30T08:06:23.754Z,101569.03
2019-05-30T08:08:53.294Z,101563.27
2019-05-30T08:11:22.847Z,101561.91
2019-05-30T08:13:52.338Z,101559.22
2019-05-30T08:16:21.813Z,101555.69
2019-05-30T08:18:51.382Z,101557.87
2019-05-30T08:21:20.994Z,101556.66
2019-05-30T08:23:50.625Z,101549.91
2019-05-30T08:26:20.159Z,101553.72
2019-05-30T08:28:49.644Z,101552.84
2019-05-30T08:31:19.153Z,101538.50
2019-05-30T08:33:48.695Z,101541.34
2019-05-30T08:36:18.337Z,101540.86
2019-05-30T08:38:48.329Z,101539.50
2019-05-30T08:41:18.243Z,101530.94
2019-05-30T08:43:47.722Z,101525.02
2019-05-30T08:46:17.178Z,101529.07
2019-05-30T08:48:46.753Z,101522.71
2019-05-30T08:51:16.268Z,101521.23
2019-05-30T08:53:45.734Z,101522.95
2019-05-30T08:56:15.302Z,101504.95
2019-05-30T08:58:44.799Z,101512.03
2019-05-30T09:01:14.310Z,101503.95
2019-05-30T09:03:44.220Z,101490.84
2019-05-30T09:06:13.873Z,101496.09
2019-05-30T09:08:44.582Z,101505.19
2019-05-30T09:11:15.208Z,101502.49
2019-05-30T09:13:44.720Z,101510.58
2019-05-30T09:16:14.257Z,101503.46
2019-05-30T09:18:45.157Z,101498.55
2019-05-30T09:21:14.871Z,101496.86
2019-05-30T09:23:45.960Z,101492.33
2019-05-30T09:26:15.653Z,101498.06
2019-05-30T09:28:46.184Z,101487.28
2019-05-30T09:31:15.770Z,101482.75
2019-05-30T09:33:46.549Z,101479.20
2019-05-30T09:36:16.136Z,101484.59
2019-05-30T09:38:45.657Z,101482.75
2019-05-30T09:41:15.190Z,101485.59
2019-05-30T09:43:46.183Z,101483.86
2019-05-30T09:46:15.969Z,101486.08
2019-05-30T09:48:46.671Z,101483.00
2019-05-30T09:51:16.308Z,101472.35
2019-05-30T09:53:46.066Z,101471.48
2019-05-30T09:56:15.602Z,101471.63
2019-05-30T09:58:46.032Z,101472.11
2019-05-30T10:01:15.816Z,101471.25
2019-05-30T10:03:46.477Z,101461.81
2019-05-30T10:06:28.414Z,101460.05
2019-05-30T10:08:48.330Z,101459.70
2019-05-30T10:11:18.897Z,101457.49
2019-05-30T10:13:49.780Z,101468.76
2019-05-30T10:16:19.618Z,101475.12
2019-05-30T10:18:49.245Z,101465.34
2019-05-30T10:21:19.155Z,101461.30
2019-05-30T10:23:49.399Z,101455.17
2019-05-30T10:26:19.153Z,101452.48
2019-05-30T10:28:49.555Z,101444.50
2019-05-30T10:31:19.130Z,101443.15
2019-05-30T10:33:49.408Z,101444.98
2019-05-30T10:36:20.255Z,101447.33
2019-05-30T10:38:50.398Z,101448.30
2019-05-30T10:41:20.670Z,101445.60
2019-05-30T10:43:51.178Z,101450.13
2019-05-30T10:46:20.798Z,101439.97
2019-05-30T10:48:50.884Z,101446.70
2019-05-30T10:51:20.574Z,101449.54
2019-05-30T10:53:50.884Z,101443.66
2019-05-30T10:56:21.311Z,101440.97
2019-05-30T10:58:50.916Z,101430.67
2019-05-30T11:01:20.419Z,101441.08
2019-05-30T11:03:50.391Z,101423.20
2019-05-30T11:06:34.514Z,101424.55
2019-05-30T11:09:05.561Z,101422.83
2019-05-30T11:11:35.210Z,101406.28
2019-05-30T11:14:04.947Z,101399.20
2019-05-30T11:16:34.448Z,101396.98
2019-05-30T11:19:07.411Z,101403.23
2019-05-30T11:21:35.178Z,101388.04
2019-05-30T11:24:04.643Z,101389.38
2019-05-30T11:26:34.197Z,101389.87
2019-05-30T11:29:03.677Z,101384.96
2019-05-30T11:31:33.163Z,101386.69
2019-05-30T11:34:02.741Z,101397.09
2019-05-30T11:36:32.181Z,101381.92
2019-05-30T11:39:06.157Z,101395.87
2019-05-30T11:41:35.573Z,101383.38
2019-05-30T11:44:05.290Z,101378.36
2019-05-30T11:46:35.129Z,101376.64
2019-05-30T11:49:04.697Z,101369.55
2019-05-30T11:51:34.207Z,101371.38
2019-05-30T11:54:03.697Z,101371.52
2019-05-30T11:56:33.211Z,101360.75
2019-05-30T11:59:02.801Z,101354.49
2019-05-30T12:01:32.391Z,101352.28
2019-05-30T12:04:01.911Z,101342.85
2019-05-30T12:06:31.423Z,101354.49
2019-05-30T12:09:01.243Z,101345.17
2019-05-30T12:11:30.811Z,101340.64
2019-05-30T12:14:01.482Z,101337.60
2019-05-30T12:16:31.735Z,101332.21
2019-05-30T12:19:01.927Z,101327.31
2019-05-30T12:21:31.679Z,101324.61
2019-05-30T12:24:02.646Z,101320.67
2019-05-30T12:26:33.914Z,101326.06
2019-05-30T12:29:04.555Z,101320.67
2019-05-30T12:31:34.076Z,101308.69
2019-05-30T12:34:03.587Z,101306.48
2019-05-30T12:36:33.139Z,101306.48
2019-05-30T12:39:02.838Z,101307.45
2019-05-30T12:41:32.440Z,101310.14
2019-05-30T12:44:03.235Z,101314.33
2019-05-30T12:46:32.908Z,101311.63
2019-05-30T12:49:03.602Z,101300.48
2019-05-30T12:51:33.378Z,101295.61
2019-05-30T12:54:02.910Z,101290.70
2019-05-30T12:56:32.330Z,101301.96
2019-05-30T12:59:03.069Z,101292.16
2019-05-30T13:01:32.675Z,101285.42
2019-05-30T13:04:03.352Z,101277.48
2019-05-30T13:06:33.052Z,101278.45
2019-05-30T13:09:03.534Z,101270.36
2019-05-30T13:11:32.976Z,101263.28
2019-05-30T13:14:02.793Z,101259.87
2019-05-30T13:16:32.657Z,101250.92
2019-05-30T13:19:02.348Z,101233.66
2019-05-30T13:21:31.836Z,101242.23
2019-05-30T13:24:01.857Z,101237.09
2019-05-30T13:26:31.744Z,101234.16
2019-05-30T13:29:02.323Z,101222.17
2019-05-30T13:31:31.893Z,101222.80
2019-05-30T13:34:02.788Z,101212.75
2019-05-30T13:36:32.487Z,101212.03
2019-05-30T13:39:03.156Z,101203.72
2019-05-30T13:41:32.870Z,101202.47
2019-05-30T13:44:04.503Z,101194.13
2019-05-30T13:46:33.681Z,101189.84
2019-05-30T13:49:04.640Z,101183.73
2019-05-30T13:51:34.360Z,101174.08
2019-05-30T13:54:05.194Z,101171.01
2019-05-30T13:56:34.932Z,101173.46
2019-05-30T13:59:04.500Z,101168.70
2019-05-30T14:01:33.949Z,101159.91
2019-05-30T14:04:04.736Z,101157.20
2019-05-30T14:06:34.329Z,101147.41
2019-05-30T14:09:04.885Z,101143.02
2019-05-30T14:11:34.412Z,101144.48
2019-05-30T14:14:04.708Z,101136.41
2019-05-30T14:16:34.361Z,101136.89
2019-05-30T14:19:05.344Z,101127.47
2019-05-30T14:21:34.919Z,101113.66
2019-05-30T14:24:05.315Z,101107.80
2019-05-30T14:26:34.872Z,101098.72
2019-05-30T14:29:05.712Z,101093.48
2019-05-30T14:31:35.406Z,101089.30
2019-05-30T14:34:05.997Z,101082.70
2019-05-30T14:36:35.617Z,101084.39
2019-05-30T14:39:06.875Z,101076.32
2019-05-30T14:41:36.507Z,101058.83
2019-05-30T14:44:07.114Z,101054.79
2019-05-30T14:46:36.685Z,101044.39
2019-05-30T14:49:06.568Z,101048.92
2019-05-30T14:51:36.518Z,101036.80
2019-05-30T14:54:06.878Z,101032.28
2019-05-30T14:56:36.517Z,101028.25
2019-05-30T14:59:06.912Z,101030.45
2019-05-30T15:01:36.537Z,101023.23
2019-05-30T15:04:09.808Z,101014.30
2019-05-30T15:06:39.333Z,101010.27
2019-05-30T15:09:17.563Z,101012.95
2019-05-30T15:11:40.229Z,101002.67
2019-05-30T15:14:10.867Z,100998.27
2019-05-30T15:16:40.501Z,101003.64
2019-05-30T15:19:10.404Z,100998.27
2019-05-30T15:21:40.109Z,100986.78
2019-05-30T15:24:09.822Z,100986.78
2019-05-30T15:26:39.404Z,100986.92
2019-05-30T15:29:10.003Z,100975.30
2019-05-30T15:31:39.605Z,100978.95
2019-05-30T15:34:09.134Z,100973.72
2019-05-30T15:36:38.624Z,100963.44
2019-05-30T15:39:09.015Z,100961.60
2019-05-30T15:41:38.554Z,100962.72
2019-05-30T15:44:08.058Z,100942.05
2019-05-30T15:46:38.293Z,100954.64
2019-05-30T15:49:08.151Z,100930.53
2019-05-30T15:51:37.712Z,100935.09
2019-05-30T15:54:07.229Z,100926.27
2019-05-30T15:56:36.808Z,100914.16
2019-05-30T15:59:06.260Z,100907.43
2019-05-30T16:01:35.775Z,100900.36
2019-05-30T16:04:06.120Z,100901.70
2019-05-30T16:06:35.599Z,100887.87
2019-05-30T16:09:06.777Z,100891.05
2019-05-30T16:11:36.573Z,100898.16
2019-05-30T16:14:06.158Z,100877.59
2019-05-30T16:16:40.101Z,100865.48
2019-05-30T16:19:18.381Z,100855.58
2019-05-30T16:21:38.048Z,100868.70
2019-05-30T16:24:07.490Z,100865.48
2019-05-30T16:26:37.063Z,100858.05
2019-05-30T16:29:06.542Z,100850.83
2019-05-30T16:31:36.062Z,100842.39
2019-05-30T16:34:05.664Z,100831.62
2019-05-30T16:36:35.155Z,100831.62
2019-05-30T16:39:06.649Z,100839.36
2019-05-30T16:41:36.209Z,100825.53
2019-05-30T16:44:05.801Z,100819.66
2019-05-30T16:46:35.291Z,100814.77
2019-05-30T16:49:04.937Z,100809.39
2019-05-30T16:51:34.490Z,100800.45
2019-05-30T16:54:03.971Z,100799.97
2019-05-30T16:56:33.526Z,100800.45
2019-05-30T16:59:03.024Z,100788.34
2019-05-30T17:01:32.980Z,100782.11
2019-05-30T17:04:02.641Z,100777.58
2019-05-30T17:06:32.148Z,100777.58
2019-05-30T17:09:01.622Z,100766.48
2019-05-30T17:11:31.180Z,100759.23
2019-05-30T17:14:00.671Z,100755.20
2019-05-30T17:16:30.200Z,100748.13
2019-05-30T17:18:59.760Z,100741.03
2019-05-30T17:21:29.245Z,100739.69
2019-05-30T17:23:58.746Z,100733.97
2019-05-30T17:26:30.768Z,100739.34
2019-05-30T17:29:00.390Z,100741.52
2019-05-30T17:31:29.901Z,100729.56
2019-05-30T17:33:59.433Z,100720.29
2019-05-30T17:36:28.958Z,100721.98
2019-05-30T17:38:58.469Z,100711.70
2019-05-30T17:41:29.031Z,100724.81
2019-05-30T17:43:58.751Z,100702.43
2019-05-30T17:46:29.845Z,100698.88
2019-05-30T17:48:59.737Z,100699.89
2019-05-30T17:51:30.030Z,100693.16
2019-05-30T17:53:59.747Z,100692.30
2019-05-30T17:56:30.211Z,100680.69
2019-05-30T17:58:59.875Z,100679.83
2019-05-30T18:01:30.437Z,100676.65
2019-05-30T18:04:00.177Z,100669.55
2019-05-30T18:06:30.715Z,100659.80
2019-05-30T18:09:00.367Z,100662.34
2019-05-30T18:11:31.043Z,100654.27
2019-05-30T18:14:00.602Z,100662.34
2019-05-30T18:16:31.344Z,100653.41
2019-05-30T18:19:00.980Z,100648.03
2019-05-30T18:21:31.707Z,100643.66
2019-05-30T18:24:01.895Z,100638.77
2019-05-30T18:26:31.973Z,100629.84
2019-05-30T18:29:01.717Z,100634.36
2019-05-30T18:31:32.322Z,100634.88
2019-05-30T18:34:02.046Z,100627.78
2019-05-30T18:36:32.682Z,100635.48
2019-05-30T18:39:02.435Z,100614.11
2019-05-30T18:41:32.860Z,100624.02
2019-05-30T18:44:02.464Z,100611.55
2019-05-30T18:46:33.243Z,100612.18
2019-05-30T18:49:03.132Z,100609.86
2019-05-30T18:51:32.647Z,100607.80
2019-05-30T18:54:02.144Z,100606.09
2019-05-30T18:56:32.809Z,100610.61
2019-05-30T18:59:02.481Z,100600.34
2019-05-30T19:01:33.630Z,100604.38
2019-05-30T19:04:03.541Z,100602.70
2019-05-30T19:06:33.822Z,100596.94
2019-05-30T19:09:04.317Z,100599.14
2019-05-30T19:11:36.355Z,100601.47
2019-05-30T19:14:05.379Z,100596.61
2019-05-30T19:16:34.981Z,100602.95
2019-05-30T19:19:04.451Z,100595.38
2019-05-30T19:21:34.193Z,100593.17
2019-05-30T19:24:03.849Z,100593.17
2019-05-30T19:26:34.588Z,100592.34
2019-05-30T19:29:04.515Z,100594.52
2019-05-30T19:31:34.780Z,100587.95
2019-05-30T19:34:04.352Z,100580.85
2019-05-30T19:36:35.133Z,100582.20
2019-05-30T19:39:06.017Z,100571.06
2019-05-30T19:41:51.391Z,100574.24
2019-05-30T19:44:07.006Z,100567.52
2019-05-30T19:46:36.587Z,100563.12
2019-05-30T19:49:06.158Z,100563.48
2019-05-30T19:51:35.640Z,100560.91
2019-05-30T19:54:05.149Z,100549.33
2019-05-30T19:56:37.416Z,100543.10
2019-05-30T19:59:05.871Z,100548.48
2019-05-30T20:01:35.841Z,100543.22
2019-05-30T20:04:05.489Z,100533.31
2019-05-30T20:06:35.000Z,100545.42
2019-05-30T20:09:06.001Z,100550.80
2019-05-30T20:11:35.645Z,100535.67
2019-05-30T20:14:05.181Z,100530.78
2019-05-30T20:16:35.749Z,100529.44
2019-05-30T20:19:05.315Z,100523.20
2019-05-30T20:21:35.736Z,100518.31
2019-05-30T20:24:05.352Z,100520.66
2019-05-30T20:26:34.950Z,100516.62
2019-05-30T20:29:05.369Z,100519.80
2019-05-30T20:31:35.533Z,100514.91
2019-05-30T20:34:05.220Z,100514.91
2019-05-30T20:36:34.797Z,100512.71
2019-05-30T20:39:05.771Z,100511.37
2019-05-30T20:41:35.323Z,100516.90
2019-05-30T20:44:04.949Z,100505.13
2019-05-30T20:46:34.959Z,100508.34
2019-05-30T20:49:04.749Z,100506.14
2019-05-30T20:51:35.539Z,100490.12
2019-05-30T20:54:05.584Z,100507.12
2019-05-30T20:56:35.315Z,100503.57
2019-05-30T20:59:04.885Z,100420.10
2019-05-30T21:01:35.581Z,100501.52
2019-05-30T21:04:05.409Z,100501.52
2019-05-30T21:06:36.604Z,100502.00
2019-05-30T21:09:07.886Z,100495.44
2019-05-30T21:11:39.886Z,100494.58
2019-05-30T21:14:09.549Z,100492.38
2019-05-30T21:16:41.842Z,100494.58
2019-05-30T21:19:13.061Z,100489.69
2019-05-30T21:21:42.639Z,100484.80
2019-05-30T21:24:12.256Z,100485.32
2019-05-30T21:26:42.751Z,100481.77
2019-05-30T21:29:12.350Z,100484.09
2019-05-30T21:31:43.324Z,100475.17
2019-05-30T21:34:14.555Z,100479.20
2019-05-30T21:36:44.356Z,100480.55
2019-05-30T21:39:14.054Z,100475.69
2019-05-30T21:41:44.575Z,100476.66
2019-05-30T21:44:14.196Z,100476.66
2019-05-30T21:46:44.782Z,100478.86
2019-05-30T21:49:14.400Z,100472.27
2019-05-30T21:51:43.969Z,100460.17
2019-05-30T21:54:13.458Z,100472.27
2019-05-30T21:56:43.975Z,100468.75
2019-05-30T21:59:13.511Z,100465.20
2019-05-30T22:01:44.752Z,100468.38
2019-05-30T22:04:14.457Z,100465.20
2019-05-30T22:06:44.990Z,100468.38
2019-05-30T22:09:14.723Z,100471.06
2019-05-30T22:11:45.411Z,100467.52
2019-05-30T22:14:15.198Z,100469.73
2019-05-30T22:16:45.916Z,100463.49
2019-05-30T22:19:15.653Z,100468.88
2019-05-30T22:21:46.112Z,100466.18
2019-05-30T22:24:15.939Z,100479.13
2019-05-30T22:26:46.342Z,100478.77
2019-05-30T22:29:15.984Z,100482.31
2019-05-30T22:31:46.598Z,100487.84
2019-05-30T22:34:16.299Z,100490.86
2019-05-30T22:36:46.759Z,100493.21
2019-05-30T22:39:16.330Z,100491.02
2019-05-30T22:41:45.908Z,100494.55
2019-05-30T22:44:15.388Z,100493.21
2019-05-30T22:46:46.098Z,100498.09
2019-05-30T22:49:15.818Z,100493.70
2019-05-30T22:51:45.333Z,100494.55
2019-05-30T22:54:14.831Z,100486.98
2019-05-30T22:56:45.439Z,100488.32
2019-05-30T22:59:14.991Z,100490.52
2019-05-30T23:01:44.885Z,100489.17
2019-05-30T23:04:14.483Z,100494.19
2019-05-30T23:06:43.969Z,100490.52
2019-05-30T23:09:13.497Z,100491.87
2019-05-30T23:11:43.074Z,100486.49
2019-05-30T23:14:12.568Z,100484.29
2019-05-30T23:16:42.030Z,100481.97
2019-05-30T23:19:11.634Z,100488.32
2019-05-30T23:21:41.118Z,100486.49
2019-05-30T23:24:10.574Z,100486.00
2019-05-30T23:26:40.154Z,100491.87
2019-05-30T23:29:09.682Z,100495.90
2019-05-30T23:31:39.181Z,100501.27
2019-05-30T23:34:08.767Z,100503.48
2019-05-30T23:36:38.255Z,100509.83
2019-05-30T23:39:08.111Z,100505.80
2019-05-30T23:41:37.688Z,100514.23
2019-05-30T23:44:11.351Z,100515.20
2019-05-30T23:46:38.496Z,100508.48
2019-05-30T23:49:07.951Z,100508.48
2019-05-30T23:51:37.468Z,100509.83
2019-05-30T23:54:06.966Z,100520.09
2019-05-30T23:56:36.421Z,100523.63
2019-05-30T23:59:05.878Z,100522.78
